createdAt,value
2019-01-13T00:02:20.797Z,59.92
2019-01-13T00:04:46.661Z,60.10
2019-01-13T00:07:12.513Z,60.56
2019-01-13T00:09:38.413Z,60.95
2019-01-13T00:12:04.288Z,60.74
2019-01-13T00:14:30.187Z,61.56
2019-01-13T00:16:56.147Z,62.00
2019-01-13T00:19:22.008Z,62.45
2019-01-13T00:21:47.894Z,62.31
2019-01-13T00:24:13.752Z,62.56
2019-01-13T00:26:39.670Z,62.98
2019-01-13T00:29:05.539Z,62.70
2019-01-13T00:31:31.441Z,62.65
2019-01-13T00:33:57.306Z,62.91
2019-01-13T00:36:23.198Z,62.97
2019-01-13T00:38:49.074Z,62.36
2019-01-13T00:41:14.974Z,62.32
2019-01-13T00:43:40.958Z,62.32
2019-01-13T00:46:06.802Z,63.67
2019-01-13T00:48:32.724Z,64.04
2019-01-13T00:50:58.616Z,63.63
2019-01-13T00:53:24.560Z,63.93
2019-01-13T00:55:51.009Z,62.37
2019-01-13T00:58:16.835Z,61.94
2019-01-13T01:00:42.732Z,62.73
2019-01-13T01:03:08.717Z,63.05
2019-01-13T01:05:34.575Z,63.63
2019-01-13T01:08:00.472Z,63.96
2019-01-13T01:10:26.344Z,63.87
2019-01-13T01:12:52.210Z,63.98
2019-01-13T01:15:18.176Z,64.15
2019-01-13T01:17:44.053Z,63.95
2019-01-13T01:20:12.754Z,63.79
2019-01-13T01:22:38.636Z,63.47
2019-01-13T01:25:06.105Z,63.64
2019-01-13T01:27:31.973Z,64.18
2019-01-13T01:29:57.859Z,64.22
2019-01-13T01:32:23.730Z,64.17
2019-01-13T01:34:49.602Z,64.72
2019-01-13T01:37:15.493Z,64.38
2019-01-13T01:39:41.370Z,63.61
2019-01-13T01:42:07.225Z,63.22
2019-01-13T01:44:33.096Z,63.49
2019-01-13T01:46:58.970Z,63.32
2019-01-13T01:49:24.882Z,63.03
2019-01-13T01:51:50.767Z,62.74
2019-01-13T01:54:16.862Z,62.68
2019-01-13T01:56:43.094Z,62.97
2019-01-13T01:59:08.943Z,62.63
2019-01-13T02:01:34.836Z,62.82
2019-01-13T02:04:00.682Z,62.56
2019-01-13T02:06:26.658Z,62.70
2019-01-13T02:08:52.548Z,62.81
2019-01-13T02:11:18.469Z,62.47
2019-01-13T02:13:44.411Z,62.33
2019-01-13T02:16:12.186Z,62.36
2019-01-13T02:18:38.100Z,62.40
2019-01-13T02:21:03.959Z,62.77
2019-01-13T02:23:29.822Z,62.57
2019-01-13T02:25:55.708Z,62.99
2019-01-13T02:28:21.764Z,63.30
2019-01-13T02:30:49.237Z,63.56
2019-01-13T02:33:15.441Z,63.37
2019-01-13T02:35:41.305Z,63.84
2019-01-13T02:38:07.309Z,64.19
2019-01-13T02:40:33.295Z,63.94
2019-01-13T02:42:59.152Z,63.99
2019-01-13T02:45:25.918Z,64.03
2019-01-13T02:47:51.930Z,64.43
2019-01-13T02:50:17.821Z,63.47
2019-01-13T02:52:43.688Z,62.55
2019-01-13T02:55:09.711Z,62.31
2019-01-13T02:57:36.391Z,62.13
2019-01-13T03:00:06.269Z,62.51
2019-01-13T03:02:32.165Z,62.55
2019-01-13T03:04:58.019Z,62.69
2019-01-13T03:07:23.903Z,62.19
2019-01-13T03:09:49.789Z,62.01
2019-01-13T03:12:15.658Z,61.89
2019-01-13T03:14:41.546Z,62.10
2019-01-13T03:17:07.424Z,62.23
2019-01-13T03:19:33.321Z,62.50
2019-01-13T03:21:59.166Z,62.19
2019-01-13T03:24:25.036Z,62.23
2019-01-13T03:26:51.061Z,63.03
2019-01-13T03:29:16.931Z,62.98
2019-01-13T03:31:42.958Z,63.26
2019-01-13T03:34:08.881Z,62.73
2019-01-13T03:36:34.744Z,62.59
2019-01-13T03:39:00.646Z,62.47
2019-01-13T03:41:26.632Z,62.31
2019-01-13T03:43:52.502Z,62.96
2019-01-13T03:46:18.402Z,62.71
2019-01-13T03:48:44.377Z,62.82
2019-01-13T03:51:10.248Z,62.63
2019-01-13T03:53:36.141Z,62.70
2019-01-13T03:56:02.060Z,62.30
2019-01-13T03:58:28.818Z,63.08
2019-01-13T04:00:54.718Z,62.92
2019-01-13T04:03:20.693Z,62.62
2019-01-13T04:05:46.591Z,64.12
2019-01-13T04:08:12.544Z,64.12
2019-01-13T04:10:38.418Z,63.57
2019-01-13T04:13:04.310Z,63.32
2019-01-13T04:15:39.351Z,63.88
2019-01-13T04:18:05.239Z,63.51
2019-01-13T04:20:31.247Z,64.81
2019-01-13T04:22:57.140Z,64.14
2019-01-13T04:25:22.992Z,64.49
2019-01-13T04:27:48.859Z,65.16
2019-01-13T04:30:14.725Z,65.09
2019-01-13T04:32:40.604Z,65.18
2019-01-13T04:35:06.816Z,64.95
2019-01-13T04:37:32.714Z,64.66
2019-01-13T04:39:58.577Z,64.44
2019-01-13T04:42:24.460Z,63.75
2019-01-13T04:44:50.338Z,64.02
2019-01-13T04:47:16.225Z,64.28
2019-01-13T04:49:42.083Z,64.77
2019-01-13T04:52:07.967Z,64.41
2019-01-13T04:54:33.858Z,63.91
2019-01-13T04:56:59.783Z,63.80
2019-01-13T04:59:26.363Z,63.82
2019-01-13T05:01:52.272Z,63.86
2019-01-13T05:04:18.127Z,64.26
2019-01-13T05:06:44.103Z,64.47
2019-01-13T05:09:10.105Z,63.92
2019-01-13T05:11:35.980Z,63.51
2019-01-13T05:14:01.845Z,63.85
2019-01-13T05:16:27.715Z,64.08
2019-01-13T05:18:53.579Z,64.07
2019-01-13T05:21:19.463Z,64.05
2019-01-13T05:23:45.329Z,63.62
2019-01-13T05:26:11.219Z,64.06
2019-01-13T05:28:37.093Z,63.81
2019-01-13T05:31:02.950Z,63.78
2019-01-13T05:33:28.844Z,64.44
2019-01-13T05:35:54.735Z,63.72
2019-01-13T05:38:20.598Z,63.72
2019-01-13T05:40:46.482Z,63.49
2019-01-13T05:43:12.475Z,63.36
2019-01-13T05:45:38.376Z,63.25
2019-01-13T05:48:04.373Z,63.46
2019-01-13T05:50:30.242Z,63.76
2019-01-13T05:52:56.445Z,64.21
2019-01-13T05:55:22.814Z,63.90
2019-01-13T05:57:48.723Z,63.96
2019-01-13T06:00:17.184Z,64.55
2019-01-13T06:02:43.053Z,64.57
2019-01-13T06:05:08.907Z,64.13
2019-01-13T06:07:34.762Z,63.57
2019-01-13T06:10:00.638Z,64.18
2019-01-13T06:12:26.531Z,64.46
2019-01-13T06:14:52.427Z,63.74
2019-01-13T06:17:18.302Z,63.81
2019-01-13T06:19:44.156Z,64.50
2019-01-13T06:22:10.028Z,64.18
2019-01-13T06:24:35.896Z,63.39
2019-01-13T06:27:01.775Z,63.36
2019-01-13T06:29:27.874Z,62.29
2019-01-13T06:31:56.397Z,62.19
2019-01-13T06:34:21.544Z,62.80
2019-01-13T06:36:47.465Z,62.25
2019-01-13T06:39:13.321Z,62.78
2019-01-13T06:41:39.195Z,62.74
2019-01-13T06:44:05.056Z,62.34
2019-01-13T06:46:30.929Z,62.60
2019-01-13T06:48:58.183Z,62.79
2019-01-13T06:51:24.054Z,63.15
2019-01-13T06:53:50.028Z,64.02
2019-01-13T06:56:15.982Z,63.49
2019-01-13T06:58:41.893Z,63.49
2019-01-13T07:01:08.736Z,63.53
2019-01-13T07:03:34.586Z,63.94
2019-01-13T07:06:00.457Z,64.25
2019-01-13T07:08:26.310Z,64.21
2019-01-13T07:10:52.172Z,64.45
2019-01-13T07:13:18.041Z,64.65
2019-01-13T07:15:43.916Z,64.33
2019-01-13T07:18:09.807Z,64.99
2019-01-13T07:20:35.717Z,64.96
2019-01-13T07:23:01.617Z,64.52
2019-01-13T07:25:27.454Z,64.46
2019-01-13T07:27:53.316Z,64.85
2019-01-13T07:30:22.169Z,64.69
2019-01-13T07:32:48.298Z,64.13
2019-01-13T07:35:14.204Z,63.80
2019-01-13T07:37:40.061Z,64.05
2019-01-13T07:40:12.545Z,64.64
2019-01-13T07:42:38.414Z,64.84
2019-01-13T07:45:07.886Z,64.43
2019-01-13T07:47:33.739Z,64.79
2019-01-13T07:49:59.634Z,65.10
2019-01-13T07:52:25.516Z,64.19
2019-01-13T07:54:51.588Z,64.43
2019-01-13T07:57:17.560Z,63.85
2019-01-13T07:59:43.461Z,64.62
2019-01-13T08:02:10.219Z,65.07
2019-01-13T08:04:36.064Z,64.87
2019-01-13T08:07:01.932Z,64.62
2019-01-13T08:09:27.814Z,64.70
2019-01-13T08:11:54.045Z,63.80
2019-01-13T08:14:19.930Z,63.79
2019-01-13T08:16:45.837Z,63.74
2019-01-13T08:19:11.699Z,63.58
2019-01-13T08:21:37.563Z,63.51
2019-01-13T08:24:03.424Z,63.46
2019-01-13T08:26:29.326Z,63.31
2019-01-13T08:28:55.187Z,62.84
2019-01-13T08:31:21.051Z,62.40
2019-01-13T08:33:46.939Z,61.97
2019-01-13T08:36:12.836Z,61.49
2019-01-13T08:38:38.698Z,60.73
2019-01-13T08:41:04.604Z,60.78
2019-01-13T08:43:30.448Z,59.78
2019-01-13T08:45:56.328Z,59.29
2019-01-13T08:48:22.170Z,59.20
2019-01-13T08:50:48.019Z,57.98
2019-01-13T08:53:13.882Z,58.67
2019-01-13T08:55:39.753Z,59.88
2019-01-13T08:58:05.621Z,59.41
2019-01-13T09:00:31.532Z,58.95
2019-01-13T09:02:58.098Z,58.91
2019-01-13T09:05:23.997Z,58.25
2019-01-13T09:07:49.863Z,57.68
2019-01-13T09:10:17.427Z,57.45
2019-01-13T09:12:43.288Z,56.75
2019-01-13T09:15:12.248Z,56.33
2019-01-13T09:17:38.132Z,55.75
2019-01-13T09:20:07.818Z,55.63
2019-01-13T09:22:33.801Z,55.51
2019-01-13T09:24:59.785Z,55.17
2019-01-13T09:27:25.668Z,55.05
2019-01-13T09:29:51.516Z,54.45
2019-01-13T09:32:17.371Z,53.96
2019-01-13T09:34:43.244Z,53.57
2019-01-13T09:37:09.124Z,53.34
2019-01-13T09:39:35.013Z,53.65
2019-01-13T09:42:00.881Z,53.17
2019-01-13T09:44:26.743Z,52.82
2019-01-13T09:46:52.631Z,52.76
2019-01-13T09:49:18.491Z,52.66
2019-01-13T09:51:44.448Z,52.52
2019-01-13T09:54:10.322Z,52.88
2019-01-13T09:56:36.184Z,52.40
2019-01-13T09:59:02.049Z,52.36
2019-01-13T10:01:27.993Z,51.79
2019-01-13T10:03:54.890Z,51.38
2019-01-13T10:06:20.766Z,51.32
2019-01-13T10:08:46.629Z,51.25
2019-01-13T10:11:12.536Z,51.31
2019-01-13T10:13:38.389Z,50.90
2019-01-13T10:16:04.246Z,50.83
2019-01-13T10:18:30.113Z,50.82
2019-01-13T10:20:56.152Z,50.32
2019-01-13T10:23:22.209Z,49.73
2019-01-13T10:25:48.058Z,49.73
2019-01-13T10:28:13.932Z,49.53
2019-01-13T10:30:39.846Z,49.42
2019-01-13T10:33:05.737Z,49.17
2019-01-13T10:35:31.590Z,49.30
2019-01-13T10:37:57.469Z,48.41
2019-01-13T10:40:26.973Z,47.85
2019-01-13T10:42:52.828Z,47.18
2019-01-13T10:45:18.821Z,47.54
2019-01-13T10:51:12.152Z,47.17
2019-01-13T10:53:38.064Z,47.63
2019-01-13T10:56:03.932Z,46.79
2019-01-13T10:58:29.785Z,47.22
2019-01-13T11:00:55.671Z,47.23
2019-01-13T11:03:21.849Z,47.62
2019-01-13T11:05:48.219Z,47.47
2019-01-13T11:08:14.143Z,48.09
2019-01-13T11:10:40.069Z,49.06
2019-01-13T11:13:05.943Z,49.67
2019-01-13T11:15:31.804Z,50.12
2019-01-13T11:17:57.660Z,50.88
2019-01-13T11:20:32.356Z,50.92
2019-01-13T11:22:58.368Z,50.94
2019-01-13T11:25:24.273Z,50.70
2019-01-13T11:27:50.140Z,51.01
2019-01-13T11:30:18.082Z,50.74
2019-01-13T11:32:43.926Z,50.72
2019-01-13T11:35:12.525Z,50.48
2019-01-13T11:37:38.412Z,50.61
2019-01-13T11:40:10.643Z,50.33
2019-01-13T11:42:36.503Z,49.93
2019-01-13T11:45:04.304Z,49.79
2019-01-13T11:47:30.180Z,49.58
2019-01-13T11:49:56.068Z,49.57
2019-01-13T11:52:21.942Z,49.75
2019-01-13T11:54:47.826Z,49.67
2019-01-13T11:57:14.105Z,49.75
2019-01-13T11:59:40.086Z,49.33
2019-01-13T12:02:06.016Z,49.15
2019-01-13T12:04:31.911Z,49.02
2019-01-13T12:06:58.511Z,48.72
2019-01-13T12:09:24.474Z,48.76
2019-01-13T12:11:50.358Z,48.62
2019-01-13T12:14:16.319Z,48.35
2019-01-13T12:16:42.557Z,48.09
2019-01-13T12:19:08.398Z,47.79
2019-01-13T12:21:34.292Z,47.63
2019-01-13T12:24:00.199Z,47.23
2019-01-13T12:26:26.081Z,47.18
2019-01-13T12:28:52.080Z,46.90
2019-01-13T12:31:17.942Z,46.47
2019-01-13T12:33:43.866Z,46.90
2019-01-13T12:36:09.761Z,46.48
2019-01-13T12:38:35.625Z,46.48
2019-01-13T12:41:01.507Z,46.30
2019-01-13T12:43:27.423Z,45.52
2019-01-13T12:45:53.292Z,45.60
2019-01-13T12:48:19.193Z,45.07
2019-01-13T12:50:45.195Z,44.51
2019-01-13T12:53:11.055Z,44.24
2019-01-13T12:55:36.977Z,44.03
2019-01-13T12:58:06.708Z,44.71
2019-01-13T13:00:32.580Z,43.79
2019-01-13T13:02:58.442Z,40.88
2019-01-13T13:05:24.340Z,39.12
2019-01-13T13:07:51.484Z,35.62
2019-01-13T13:10:26.724Z,36.52
2019-01-13T13:12:52.711Z,37.91
2019-01-13T13:15:18.621Z,37.17
2019-01-13T13:17:45.367Z,32.82
2019-01-13T13:20:15.064Z,34.16
2019-01-13T13:22:40.947Z,34.67
2019-01-13T13:25:08.804Z,38.26
2019-01-13T13:27:34.679Z,39.60
2019-01-13T13:30:00.549Z,40.62
2019-01-13T13:32:26.448Z,41.71
2019-01-13T13:34:52.398Z,43.10
2019-01-13T13:37:18.271Z,43.07
2019-01-13T13:39:44.138Z,43.32
2019-01-13T13:42:10.068Z,43.95
2019-01-13T13:44:35.885Z,44.57
2019-01-13T13:47:01.779Z,44.71
2019-01-13T13:49:28.031Z,45.35
2019-01-13T13:51:54.009Z,44.34
2019-01-13T13:54:19.955Z,45.09
2019-01-13T13:56:45.922Z,44.82
2019-01-13T13:59:11.947Z,44.79
2019-01-13T14:01:37.814Z,44.51
2019-01-13T14:04:03.799Z,44.95
2019-01-13T14:06:29.695Z,44.90
2019-01-13T14:08:56.639Z,45.41
2019-01-13T14:11:22.567Z,45.21
2019-01-13T14:13:48.540Z,44.67
2019-01-13T14:16:14.544Z,44.30
2019-01-13T14:18:40.410Z,44.75
2019-01-13T14:21:06.310Z,45.21
2019-01-13T14:23:32.174Z,45.54
2019-01-13T14:26:00.041Z,46.16
2019-01-13T14:28:25.945Z,46.34
2019-01-13T14:30:51.825Z,46.16
2019-01-13T14:33:17.738Z,45.87
2019-01-13T14:35:43.715Z,46.05
2019-01-13T14:38:09.603Z,46.65
2019-01-13T14:40:35.490Z,46.61
2019-01-13T14:43:01.374Z,47.37
2019-01-13T14:45:27.272Z,47.57
2019-01-13T14:47:53.164Z,48.02
2019-01-13T14:50:21.044Z,47.71
2019-01-13T14:52:47.537Z,47.61
2019-01-13T14:55:13.916Z,48.34
2019-01-13T14:57:39.787Z,48.05
2019-01-13T15:00:11.381Z,48.13
2019-01-13T15:02:37.252Z,48.76
2019-01-13T15:05:06.278Z,49.10
2019-01-13T15:07:32.324Z,49.14
2019-01-13T15:09:58.946Z,49.07
2019-01-13T15:12:24.992Z,49.18
2019-01-13T15:14:51.038Z,49.81
2019-01-13T15:17:16.918Z,49.91
2019-01-13T15:19:42.891Z,50.05
2019-01-13T15:22:08.824Z,50.37
2019-01-13T15:24:34.728Z,50.48
2019-01-13T15:27:00.591Z,50.72
2019-01-13T15:29:26.498Z,50.83
2019-01-13T15:31:52.391Z,50.94
2019-01-13T15:34:18.321Z,51.22
2019-01-13T15:36:44.185Z,51.47
2019-01-13T15:39:10.059Z,51.77
2019-01-13T15:41:35.991Z,52.08
2019-01-13T15:44:01.915Z,52.28
2019-01-13T15:46:27.789Z,52.80
2019-01-13T15:48:53.644Z,52.74
2019-01-13T15:51:19.551Z,53.10
2019-01-13T15:53:45.513Z,53.50
2019-01-13T15:56:11.401Z,53.88
2019-01-13T15:58:37.262Z,54.64
2019-01-13T16:01:03.165Z,54.17
2019-01-13T16:03:29.046Z,54.43
2019-01-13T16:05:54.928Z,54.23
2019-01-13T16:08:20.821Z,54.34
2019-01-13T16:10:47.028Z,54.84
2019-01-13T16:13:12.941Z,55.05
2019-01-13T16:15:38.838Z,54.80
2019-01-13T16:18:04.725Z,54.91
2019-01-13T16:20:32.691Z,55.24
2019-01-13T16:22:58.599Z,55.30
2019-01-13T16:25:24.478Z,56.00
2019-01-13T16:27:50.355Z,56.28
2019-01-13T16:30:27.563Z,56.58
2019-01-13T16:32:53.459Z,57.24
2019-01-13T16:35:19.349Z,57.24
2019-01-13T16:37:45.351Z,56.85
2019-01-13T16:40:13.236Z,57.09
2019-01-13T16:42:39.140Z,56.68
2019-01-13T16:45:08.153Z,56.57
2019-01-13T16:47:34.012Z,57.72
2019-01-13T16:49:59.903Z,58.03
2019-01-13T16:52:25.774Z,56.73
2019-01-13T16:54:51.679Z,56.98
2019-01-13T16:57:17.670Z,56.53
2019-01-13T16:59:43.555Z,56.83
2019-01-13T17:02:09.426Z,57.46
2019-01-13T17:04:35.420Z,57.76
2019-01-13T17:07:01.313Z,57.31
2019-01-13T17:09:27.295Z,57.54
2019-01-13T17:11:53.466Z,57.35
2019-01-13T17:14:19.381Z,57.89
2019-01-13T17:16:45.243Z,57.89
2019-01-13T17:19:11.110Z,57.48
2019-01-13T17:21:36.974Z,57.72
2019-01-13T17:24:02.842Z,58.03
2019-01-13T17:26:28.694Z,58.40
2019-01-13T17:28:54.611Z,58.98
2019-01-13T17:31:20.503Z,59.55
2019-01-13T17:33:46.376Z,59.72
2019-01-13T17:36:12.260Z,59.52
2019-01-13T17:38:38.153Z,58.91
2019-01-13T17:41:04.051Z,59.30
2019-01-13T17:43:29.930Z,59.20
2019-01-13T17:45:55.803Z,58.88
2019-01-13T17:48:21.667Z,59.37
2019-01-13T17:50:47.516Z,59.74
2019-01-13T17:53:13.376Z,59.97
2019-01-13T17:55:39.248Z,60.18
2019-01-13T17:58:05.233Z,59.94
2019-01-13T18:00:37.405Z,59.57
2019-01-13T18:03:06.388Z,60.55
2019-01-13T18:05:32.272Z,60.92
2019-01-13T18:07:58.440Z,60.65
2019-01-13T18:10:24.791Z,60.38
2019-01-13T18:12:51.495Z,60.59
2019-01-13T18:15:17.376Z,61.06
2019-01-13T18:17:43.263Z,60.36
2019-01-13T18:20:12.786Z,60.22
2019-01-13T18:22:38.665Z,59.79
2019-01-13T18:25:04.541Z,59.51
2019-01-13T18:27:30.409Z,59.48
2019-01-13T18:29:56.268Z,59.42
2019-01-13T18:32:22.157Z,59.33
2019-01-13T18:34:50.352Z,59.14
2019-01-13T18:37:15.938Z,59.17
2019-01-13T18:39:41.813Z,59.21
2019-01-13T18:42:08.066Z,59.91
2019-01-13T18:44:34.039Z,60.66
2019-01-13T18:46:59.936Z,59.82
2019-01-13T18:49:25.929Z,59.64
2019-01-13T18:51:51.809Z,59.25
2019-01-13T18:54:18.102Z,59.43
2019-01-13T18:56:44.020Z,60.70
2019-01-13T18:59:09.875Z,60.77
2019-01-13T19:01:35.782Z,60.50
2019-01-13T19:04:01.738Z,60.23
2019-01-13T19:06:27.613Z,59.95
2019-01-13T19:08:53.500Z,60.12
2019-01-13T19:11:19.401Z,60.89
2019-01-13T19:14:01.173Z,61.29
2019-01-13T19:16:30.136Z,60.90
2019-01-13T19:18:56.354Z,60.59
2019-01-13T19:21:22.237Z,60.35
2019-01-13T19:23:48.098Z,61.32
2019-01-13T19:26:14.004Z,61.27
2019-01-13T19:28:39.885Z,61.51
2019-01-13T19:31:05.769Z,62.06
2019-01-13T19:33:31.655Z,62.39
2019-01-13T19:35:57.534Z,62.09
2019-01-13T19:38:23.505Z,62.26
2019-01-13T19:40:49.422Z,62.37
2019-01-13T19:43:15.349Z,61.98
2019-01-13T19:45:41.207Z,61.33
2019-01-13T19:48:07.089Z,61.50
2019-01-13T19:50:32.964Z,61.75
2019-01-13T19:53:00.457Z,61.43
2019-01-13T19:55:26.608Z,61.14
2019-01-13T19:57:52.581Z,60.94
2019-01-13T20:00:27.261Z,60.39
2019-01-13T20:02:53.120Z,60.83
2019-01-13T20:05:19.093Z,61.11
2019-01-13T20:07:45.349Z,61.12
2019-01-13T20:10:12.731Z,61.12
2019-01-13T20:12:38.635Z,61.31
2019-01-13T20:15:09.123Z,61.81
2019-01-13T20:17:35.296Z,61.52
2019-01-13T20:20:01.689Z,61.98
2019-01-13T20:22:27.584Z,61.55
2019-01-13T20:24:53.461Z,61.64
2019-01-13T20:27:19.439Z,61.63
2019-01-13T20:29:45.538Z,61.65
2019-01-13T20:32:11.435Z,61.54
2019-01-13T20:34:37.584Z,61.46
2019-01-13T20:37:03.659Z,61.81
2019-01-13T20:39:29.835Z,62.20
2019-01-13T20:41:55.838Z,62.37
2019-01-13T20:44:21.999Z,62.01
2019-01-13T20:46:47.894Z,62.11
2019-01-13T20:49:14.127Z,62.87
2019-01-13T20:51:40.259Z,63.62
2019-01-13T20:54:07.923Z,63.55
2019-01-13T20:56:34.264Z,63.44
2019-01-13T20:59:00.261Z,63.40
2019-01-13T21:01:26.311Z,63.82
2019-01-13T21:03:52.954Z,62.99
2019-01-13T21:06:18.964Z,63.01
2019-01-13T21:08:44.834Z,62.59
2019-01-13T21:11:11.979Z,63.34
2019-01-13T21:13:37.931Z,64.14
2019-01-13T21:16:04.854Z,63.93
2019-01-13T21:18:30.740Z,63.24
2019-01-13T21:20:57.017Z,63.87
2019-01-13T21:23:22.920Z,64.80
2019-01-13T21:25:48.825Z,64.78
2019-01-13T21:28:15.041Z,64.04
2019-01-13T21:30:40.999Z,64.30
2019-01-13T21:33:06.866Z,64.47
2019-01-13T21:35:34.006Z,63.87
2019-01-13T21:38:00.769Z,63.00
2019-01-13T21:40:26.852Z,63.07
2019-01-13T21:42:52.732Z,63.41
2019-01-13T21:45:22.496Z,62.81
2019-01-13T21:47:48.452Z,63.31
2019-01-13T21:50:17.423Z,64.07
2019-01-13T21:52:43.299Z,64.02
2019-01-13T21:55:11.185Z,64.07
2019-01-13T21:57:37.087Z,64.48
2019-01-13T22:00:08.046Z,64.27
2019-01-13T22:02:34.049Z,64.81
2019-01-13T22:04:59.936Z,65.35
2019-01-13T22:07:25.798Z,65.33
2019-01-13T22:09:51.665Z,65.21
2019-01-13T22:12:17.543Z,65.66
2019-01-13T22:14:43.480Z,65.03
2019-01-13T22:17:09.633Z,65.17
2019-01-13T22:19:35.519Z,65.12
2019-01-13T22:22:01.506Z,65.55
2019-01-13T22:24:27.388Z,65.75
2019-01-13T22:26:53.269Z,65.48
2019-01-13T22:29:19.285Z,65.64
2019-01-13T22:31:45.173Z,64.70
2019-01-13T22:34:11.107Z,65.03
2019-01-13T22:36:37.048Z,65.16
2019-01-13T22:39:07.752Z,65.73
2019-01-13T22:41:33.862Z,65.51
2019-01-13T22:43:59.733Z,65.07
2019-01-13T22:46:25.689Z,64.98
2019-01-13T22:48:51.598Z,64.64
2019-01-13T22:51:17.450Z,64.79
2019-01-13T22:53:43.338Z,64.30
2019-01-13T22:56:09.261Z,64.36
2019-01-13T22:58:35.128Z,64.39
2019-01-13T23:01:12.836Z,64.30
2019-01-13T23:03:38.802Z,63.91
2019-01-13T23:06:04.640Z,63.74
2019-01-13T23:08:30.482Z,63.05
2019-01-13T23:10:56.387Z,62.98
2019-01-13T23:13:22.258Z,61.94
2019-01-13T23:15:48.170Z,62.40
2019-01-13T23:18:14.680Z,62.38
2019-01-13T23:20:40.677Z,62.52
2019-01-13T23:23:06.542Z,61.71
2019-01-13T23:25:32.412Z,61.63
2019-01-13T23:27:58.423Z,61.88
2019-01-13T23:30:24.314Z,61.68
2019-01-13T23:32:50.243Z,61.68
2019-01-13T23:35:16.117Z,61.54
2019-01-13T23:37:42.120Z,61.64
2019-01-13T23:40:08.033Z,60.80
2019-01-13T23:42:34.007Z,60.80
2019-01-13T23:44:59.869Z,60.55
2019-01-13T23:47:25.769Z,60.78
2019-01-13T23:49:51.612Z,61.19
2019-01-13T23:52:17.502Z,61.28
2019-01-13T23:54:43.397Z,61.44
2019-01-13T23:57:09.269Z,61.75
2019-01-13T23:59:35.260Z,61.35
